Startpagina
METAR-TAF:

METAR-TAF

Vliegvelden :

Rome-Fiumicino, Italië

Aeroporto di Roma Fiumicino

breedte: 41-48N, lengte: 012-14E, hoogte: 2 m

Actueel weer

Dit bericht is 23 minuten geleden gemaakt, om 20:50 UTC
Wind 5 kt uit het noordwesten, variërend tussen het westen en het noordnoordwesten
Temperatuur 14°C
Vochtigheid 82%
Druk 1011 hPa
Zicht: 9000 m
Verspreide wolken op 2000 ft

METAR: LIRF 162050Z 31005KT 280V340 9000 SCT020 14/11 Q1011 NOSIG

Tijdstip: 22:13 (21:13 UTC)

Verwachting

Dit bericht is 1 uur en het 0 minuten geleden gemaakt, om 20:13 UTC
Verwachting geldig van 16 om 20 UTC tot 17 om 24 UTC
Wind 13 kt uit het westen
Zicht 10 km of meer
Verspreide wolken op 2000 ft
Wijzigt naar
van 17 om 05 UTC tot 17 om 08 UTC
Wind 25 kt uit het westnoordwesten met uitschieters tot 35 kt
Wijzigt naar
van 17 om 20 UTC tot 17 om 23 UTC
Wind 10 kt uit het noordnoordoosten

TAF: LIRF 162013Z 1620/1724 27013KT 9999 SCT020 BECMG 1705/1708 29025G35KT BECMG 1720/1723 02010KT

Waarnemingen en weersverwachtingen van meer dan 4000 vliegvelden (METAR en TAF).

De beschikbare stations zijn de gele en rode punten op de kaart.

Ga met uw muis naar het station om de naam te zien.

Klik dan om waarnemingen en weersverwachtingen te zien.

kaart wijzigen: klik op de groene knoppen met een zwart kruis om in te zoomen, op de groene knop met een streepje om uit te zoomen of op de groene pijlen voor aangrenzende kaarten.


METAR-TAF: